Orlando International Airport
KMCO : now visible

Airfield :











YOU CAN JOIN US ON...

 
LOGIN :

Register | Disclaimer

   EN    FR    IT 

 









Legend :    VFR   Marginal VFR   IFR   Intensive IFR   Very Intensive IFR
Visi :
Ceiling :
>= 8 km
>= 3000ft
5 to 8 km
1000 to 3000 ft
1500m to 5 km
500 to 1000 ft
800 to 1500m
200 to 500 ft
< 800m
< 200 ft
Symbols :   Thunderstorms  Fog  Heavy snow  Heavy precipitations  Wind > 20 kt






- Airport Elevation : 96 ft
- IATA code : MCO


KMCO - Orlando International

CURRENT METAR :
  • 071553Z 11009KT 10SM FEW040 SCT250 33/22 A3017 RMK AO2 SLP213 T03280217

EXPIRED METARs :
  • 071453Z 09007KT 10SM FEW027 FEW034 FEW250 32/23 A3017 RMK AO2 SLP215 T03170228 58001
  • 071353Z 11009KT 10SM FEW021 FEW250 30/23 A3017 RMK AO2 SLP216 T03000233

TAF KMCO
Valid from the 07 at 15:00 until the 08 at 18:00 UTC


071501Z 0715/0818 09007KT P6SM VCSH SCT035
FM071700 09010KT P6SM VCTS SCT040CB SCT250
TEMPO 0717/0719 3SM TSRA BKN035CB
FM072100 08009KT P6SM FEW050
FM080200 08004KT P6SM FEW040
FM081400 11007KT P6SM SCT025 SCT035 BKN250
KZMA FIR / North America



MET'MAP, your aeronautical weather chart ! - Copyright ORBIFLY December 2007 - Disclaimer

ORBIFLY MET'MAP TEAM :

Programming & Development : Alexandra Zaïnal
Original concept : Baudouin d'Aumeries
Technical & hardware support : Manuel Goepfert
Assistance : Marc-Olivier Méhu




SOURCES & CREDITS :

   NOAA       Earth
Advisory